aviador You're here:

KOVS Decoded Metar

BOSCOBEL in WI, USA
Report Time2018-05-23 15:53:00
UTC Time2018-05-23 16:39:07
Flight Rules vfr VFR
Wind180° at 04 kt
W.Decomp.*RWY 20: 3.8 kt HW 1.3 kt LCW
RWY 25: 1.4 kt HW 3.7 kt LCW
W.Rank180° ranks 18
Current wind is below 180° avg. (6.2)
Visibility9999 m
Phenomena:N/A
Clouds:N/A
Expected CloudBase > 2,400 ft AGL from Temp-Dew spread
CeilingNone
Temp23°C (ISA +9)
Dew Point17°C (69% RH)
QNH1022 hPa
Density Alt1,703 ft
Elevation663 ft
Report Wrong Elevation
Raw Report
KOVS 231553Z AUTO 18004KT 10SM CLR 23/17 A3018 RMK AO2 SLP219
T02280167=

Extra information for KOVS:More info

Metar Taf Metar & Taf Last 4 Metars F.Rules Stats Wind Profile Meteogram Temp Stats Airport Information Weather charts Add Link Nearby VenuesMetar ALERT Operation Metar Decoded Social comments

AIRNAV info for KOVS